Date,TemperatureHighF,TemperatureAvgF,TemperatureLowF,DewpointHighF,DewpointAvgF,DewpointLowF,HumidityHigh,HumidityAvg,HumidityLow,PressureMaxIn,PressureMinIn,WindSpeedMaxMPH,WindSpeedAvgMPH,GustSpeedMaxMPH,PrecipitationSumIn
2013-2-1,21,18,17,19,14,11,100,83,72,30.26,29.73,12,7,23,0.00
2013-2-2,19,16,11,15,11,6,92,81,73,30.27,30.07,10,5,18,0.00
2013-2-3,24,18,10,20,15,8,94,89,73,30.07,29.85,7,2,12,0.00
2013-2-4,21,18,16,16,13,10,92,83,67,30.02,29.91,12,5,26,0.00
2013-2-5,28,22,16,22,18,14,93,84,68,30.03,29.92,5,1,7,0.04
2013-2-6,26,23,13,25,18,8,100,81,66,30.44,29.96,12,5,26,0.00
2013-2-7,30,22,10,20,14,6,88,73,62,30.55,30.27,18,5,27,0.00
2013-2-8,32,29,24,30,27,19,97,91,71,30.27,29.84,17,8,29,0.00
2013-2-9,26,17,14,25,15,13,97,93,92,30.49,29.95,13,7,25,0.00
2013-2-10,35,24,14,24,16,12,94,74,39,30.54,30.19,19,5,25,0.11
2013-2-11,40,35,32,38,30,17,96,83,53,30.19,29.69,17,9,27,0.03
2013-2-12,35,32,29,30,27,24,87,81,77,30.02,29.77,13,8,29,0.00
2013-2-13,37,32,29,26,24,23,83,73,62,29.98,29.76,8,3,12,0.01
2013-2-14,39,32,24,32,26,21,93,81,59,30.01,29.82,9,3,18,0.00
2013-2-15,39,35,28,34,28,22,89,76,57,30.07,29.89,14,6,23,0.00
2013-2-16,28,23,18,23,17,10,92,78,61,30.08,29.95,7,3,13,0.00
2013-2-17,18,14,9,12,9,6,91,80,71,30.17,29.92,13,7,28,0.00
2013-2-18,28,19,11,16,12,8,91,75,55,30.37,30.13,12,5,24,0.00
2013-2-19,36,32,25,34,25,14,97,78,55,30.14,29.68,17,10,26,0.01
2013-2-20,24,20,18,20,15,13,92,80,71,30.09,29.80,15,10,31,0.00
2013-2-21,18,16,14,17,14,11,100,89,82,30.49,30.05,14,8,26,0.00
2013-2-22,34,26,18,26,22,17,95,84,67,30.49,30.18,16,6,29,0.00
2013-2-23,37,34,30,37,33,26,98,93,82,30.18,29.90,16,6,25,0.09
2013-2-24,35,30,28,34,27,25,98,90,80,30.09,29.88,9,3,21,0.02
2013-2-25,37,31,26,30,28,23,95,88,73,30.30,30.09,7,4,14,0.02
2013-2-26,39,32,24,32,28,22,95,84,67,30.31,29.92,12,5,24,0.06
2013-2-27,37,35,33,36,34,32,99,97,94,29.94,29.60,7,4,13,0.63
2013-2-28,38,34,32,36,33,31,99,96,80,29.72,29.61,7,2,14,0.36